Airfield :
LOGIN :

Register | Disclaimer

   EN    FR    IT 

 










Legend :    VFR   Marginal VFR   IFR   Intensive IFR   Very Intensive IFR
Visi :
Ceiling :
>= 8 km
>= 3000ft
5 to 8 km
1000 to 3000 ft
1500m to 5 km
500 to 1000 ft
800 to 1500m
200 to 500 ft
< 800m
< 200 ft
Symbols :   Thunderstorms  Fog  Heavy snow  Heavy precipitations  Wind > 20 kt
SIGMETs :     Misc.  Thunderstorms  Icing  Turbulence  Mountain Waves  Volcanic Ashes






- Airport Elevation : 125 ft
- IATA code : MGL


EDLN - Mönchengladbach

CURRENT METAR :
  • 170550Z AUTO 26005KT 220V290 9000 // FEW029/// BKN034/// 05/04 Q1031

EXPIRED METARs :
  • 170520Z AUTO 24005KT 220V280 6000 // BKN032/// 05/04 Q1031
  • 170450Z AUTO 25005KT 210V290 6000 // OVC033/// 05/04 Q1031
  • 170420Z AUTO 25004KT 210V280 6000 // OVC034/// 05/04 Q1031
  • 170350Z AUTO 26006KT 220V310 5000 // BKN006/// OVC036/// 05/04 Q1031
  • 170320Z AUTO 25005KT 200V290 5000 // OVC006/// 05/05 Q1031

Expired Forecast.



MET'MAP, your aeronautical weather chart ! - Copyright ORBIFLY December 2007 - Disclaimer

ORBIFLY MET'MAP TEAM :

Programming & Development : Alexandra Zaïnal
Concept & original design : Baudouin d'Aumeries
Assistance for programming : Marc-Olivier Méhu
Technical & hardware support : Manuel Goepfert

Contact : metmap@orbifly.com




SOURCES & CREDITS :

   NOAA